sensor_id;sensor_type;location;lat;lon;timestamp;P1;durP1;ratioP1;P2;durP2;ratioP2
33413;SDS011;60055;41.884;12.534;2023-05-10T00:01:40;10.05;;;7.10;;
33413;SDS011;60055;41.884;12.534;2023-05-10T00:04:05;8.77;;;7.00;;
33413;SDS011;60055;41.884;12.534;2023-05-10T00:06:31;10.40;;;6.43;;
33413;SDS011;60055;41.884;12.534;2023-05-10T00:08:57;9.45;;;5.97;;
33413;SDS011;60055;41.884;12.534;2023-05-10T00:11:22;9.10;;;6.00;;
33413;SDS011;60055;41.884;12.534;2023-05-10T00:13:48;9.65;;;6.03;;
33413;SDS011;60055;41.884;12.534;2023-05-10T00:16:13;9.68;;;6.20;;
33413;SDS011;60055;41.884;12.534;2023-05-10T00:18:39;7.72;;;5.82;;
33413;SDS011;60055;41.884;12.534;2023-05-10T00:21:05;8.05;;;6.38;;
33413;SDS011;60055;41.884;12.534;2023-05-10T00:23:31;10.68;;;6.35;;
33413;SDS011;60055;41.884;12.534;2023-05-10T00:25:56;8.55;;;5.60;;
33413;SDS011;60055;41.884;12.534;2023-05-10T00:28:22;9.05;;;6.30;;
33413;SDS011;60055;41.884;12.534;2023-05-10T00:30:47;9.07;;;6.18;;
33413;SDS011;60055;41.884;12.534;2023-05-10T00:33:13;10.48;;;6.00;;
33413;SDS011;60055;41.884;12.534;2023-05-10T00:35:38;9.45;;;5.97;;
33413;SDS011;60055;41.884;12.534;2023-05-10T00:38:04;12.10;;;6.28;;
33413;SDS011;60055;41.884;12.534;2023-05-10T00:40:29;8.30;;;6.13;;
33413;SDS011;60055;41.884;12.534;2023-05-10T00:42:55;9.88;;;6.50;;
33413;SDS011;60055;41.884;12.534;2023-05-10T00:45:21;8.85;;;5.85;;
33413;SDS011;60055;41.884;12.534;2023-05-10T00:47:47;11.55;;;6.43;;
33413;SDS011;60055;41.884;12.534;2023-05-10T00:50:13;9.18;;;6.10;;
33413;SDS011;60055;41.884;12.534;2023-05-10T00:52:40;11.27;;;5.72;;
33413;SDS011;60055;41.884;12.534;2023-05-10T00:55:07;8.65;;;5.97;;
33413;SDS011;60055;41.884;12.534;2023-05-10T00:57:34;8.70;;;6.30;;
33413;SDS011;60055;41.884;12.534;2023-05-10T00:59:59;8.55;;;6.07;;
33413;SDS011;60055;41.884;12.534;2023-05-10T01:02:24;10.00;;;6.50;;
33413;SDS011;60055;41.884;12.534;2023-05-10T01:04:50;9.00;;;6.60;;
33413;SDS011;60055;41.884;12.534;2023-05-10T01:07:16;9.43;;;6.18;;
33413;SDS011;60055;41.884;12.534;2023-05-10T01:09:42;7.90;;;6.05;;
33413;SDS011;60055;41.884;12.534;2023-05-10T01:12:07;9.85;;;6.13;;
33413;SDS011;60055;41.884;12.534;2023-05-10T01:14:33;8.88;;;5.78;;
33413;SDS011;60055;41.884;12.534;2023-05-10T01:17:01;9.05;;;5.95;;
33413;SDS011;60055;41.884;12.534;2023-05-10T01:19:27;8.32;;;5.88;;
33413;SDS011;60055;41.884;12.534;2023-05-10T01:22:03;8.07;;;5.60;;
33413;SDS011;60055;41.884;12.534;2023-05-10T01:36:29;8.18;;;5.40;;
33413;SDS011;60055;41.884;12.534;2023-05-10T01:44:24;8.23;;;6.03;;
33413;SDS011;60055;41.884;12.534;2023-05-10T01:47:07;10.80;;;6.57;;
33413;SDS011;60055;41.884;12.534;2023-05-10T01:49:57;9.10;;;6.03;;
33413;SDS011;60055;41.884;12.534;2023-05-10T01:52:27;10.45;;;6.55;;
33413;SDS011;60055;41.884;12.534;2023-05-10T01:55:00;9.75;;;6.72;;
33413;SDS011;60055;41.884;12.534;2023-05-10T01:57:30;10.95;;;7.28;;
33413;SDS011;60055;41.884;12.534;2023-05-10T01:59:58;12.13;;;7.60;;
33413;SDS011;60055;41.884;12.534;2023-05-10T02:02:30;12.23;;;7.43;;
33413;SDS011;60055;41.884;12.534;2023-05-10T02:05:01;14.18;;;7.55;;
33413;SDS011;60055;41.884;12.534;2023-05-10T02:07:28;14.90;;;7.93;;
33413;SDS011;60055;41.884;12.534;2023-05-10T02:09:55;15.50;;;8.50;;
33413;SDS011;60055;41.884;12.534;2023-05-10T02:12:21;12.93;;;8.25;;
33413;SDS011;60055;41.884;12.534;2023-05-10T02:14:48;14.02;;;7.90;;
33413;SDS011;60055;41.884;12.534;2023-05-10T02:17:17;11.05;;;7.22;;
33413;SDS011;60055;41.884;12.534;2023-05-10T02:19:44;13.27;;;8.10;;
33413;SDS011;60055;41.884;12.534;2023-05-10T02:22:12;15.88;;;8.13;;
33413;SDS011;60055;41.884;12.534;2023-05-10T02:24:38;12.80;;;7.20;;
33413;SDS011;60055;41.884;12.534;2023-05-10T02:27:05;9.85;;;7.30;;
33413;SDS011;60055;41.884;12.534;2023-05-10T02:29:32;15.45;;;6.82;;
33413;SDS011;60055;41.884;12.534;2023-05-10T02:31:58;10.85;;;6.93;;
33413;SDS011;60055;41.884;12.534;2023-05-10T02:34:25;11.02;;;7.10;;
33413;SDS011;60055;41.884;12.534;2023-05-10T02:36:52;10.23;;;6.88;;
33413;SDS011;60055;41.884;12.534;2023-05-10T02:39:18;13.40;;;7.00;;
33413;SDS011;60055;41.884;12.534;2023-05-10T02:41:45;13.23;;;6.28;;
33413;SDS011;60055;41.884;12.534;2023-05-10T02:44:12;10.68;;;7.13;;
33413;SDS011;60055;41.884;12.534;2023-05-10T02:46:40;11.73;;;6.93;;
33413;SDS011;60055;41.884;12.534;2023-05-10T02:49:05;9.38;;;6.22;;
33413;SDS011;60055;41.884;12.534;2023-05-10T02:51:31;10.40;;;6.82;;
33413;SDS011;60055;41.884;12.534;2023-05-10T02:54:18;9.30;;;6.70;;
33413;SDS011;60055;41.884;12.534;2023-05-10T02:56:47;10.13;;;6.88;;
33413;SDS011;60055;41.884;12.534;2023-05-10T02:59:18;10.50;;;6.60;;
33413;SDS011;60055;41.884;12.534;2023-05-10T03:01:44;9.20;;;6.57;;
33413;SDS011;60055;41.884;12.534;2023-05-10T03:04:10;10.43;;;6.78;;
33413;SDS011;60055;41.884;12.534;2023-05-10T03:06:35;14.05;;;7.18;;
33413;SDS011;60055;41.884;12.534;2023-05-10T03:09:01;8.45;;;6.18;;
33413;SDS011;60055;41.884;12.534;2023-05-10T03:14:24;8.95;;;6.18;;
33413;SDS011;60055;41.884;12.534;2023-05-10T03:17:00;10.80;;;6.80;;
33413;SDS011;60055;41.884;12.534;2023-05-10T03:19:45;11.02;;;6.75;;
33413;SDS011;60055;41.884;12.534;2023-05-10T03:22:18;14.75;;;7.53;;
33413;SDS011;60055;41.884;12.534;2023-05-10T03:24:49;10.30;;;7.45;;
33413;SDS011;60055;41.884;12.534;2023-05-10T03:27:18;11.48;;;6.95;;
33413;SDS011;60055;41.884;12.534;2023-05-10T03:29:45;9.07;;;6.90;;
33413;SDS011;60055;41.884;12.534;2023-05-10T03:32:11;10.90;;;6.72;;
33413;SDS011;60055;41.884;12.534;2023-05-10T03:34:40;10.68;;;6.82;;
33413;SDS011;60055;41.884;12.534;2023-05-10T03:37:07;10.18;;;7.13;;
33413;SDS011;60055;41.884;12.534;2023-05-10T03:39:32;10.35;;;7.05;;
33413;SDS011;60055;41.884;12.534;2023-05-10T03:41:58;14.07;;;7.93;;
33413;SDS011;60055;41.884;12.534;2023-05-10T03:44:23;10.50;;;7.10;;
33413;SDS011;60055;41.884;12.534;2023-05-10T03:46:49;10.52;;;7.28;;
33413;SDS011;60055;41.884;12.534;2023-05-10T03:49:14;11.73;;;7.25;;
33413;SDS011;60055;41.884;12.534;2023-05-10T03:51:40;11.48;;;7.05;;
33413;SDS011;60055;41.884;12.534;2023-05-10T03:54:05;11.82;;;7.57;;
33413;SDS011;60055;41.884;12.534;2023-05-10T03:56:30;13.82;;;7.78;;
33413;SDS011;60055;41.884;12.534;2023-05-10T03:58:56;14.55;;;8.13;;
33413;SDS011;60055;41.884;12.534;2023-05-10T04:01:21;13.23;;;7.80;;
33413;SDS011;60055;41.884;12.534;2023-05-10T04:03:47;11.13;;;7.50;;
33413;SDS011;60055;41.884;12.534;2023-05-10T04:06:12;10.95;;;7.70;;
33413;SDS011;60055;41.884;12.534;2023-05-10T04:08:38;12.85;;;7.38;;
33413;SDS011;60055;41.884;12.534;2023-05-10T04:11:06;11.70;;;7.70;;
33413;SDS011;60055;41.884;12.534;2023-05-10T04:13:33;11.80;;;7.50;;
33413;SDS011;60055;41.884;12.534;2023-05-10T04:15:58;11.15;;;7.25;;
33413;SDS011;60055;41.884;12.534;2023-05-10T04:18:24;11.90;;;6.97;;
33413;SDS011;60055;41.884;12.534;2023-05-10T04:20:49;13.57;;;6.93;;
33413;SDS011;60055;41.884;12.534;2023-05-10T04:23:15;11.00;;;6.57;;
33413;SDS011;60055;41.884;12.534;2023-05-10T04:25:41;14.35;;;7.78;;
33413;SDS011;60055;41.884;12.534;2023-05-10T04:28:07;12.68;;;6.90;;
33413;SDS011;60055;41.884;12.534;2023-05-10T04:30:32;8.73;;;6.88;;
33413;SDS011;60055;41.884;12.534;2023-05-10T04:32:58;13.68;;;7.07;;
33413;SDS011;60055;41.884;12.534;2023-05-10T04:35:23;8.70;;;6.85;;
33413;SDS011;60055;41.884;12.534;2023-05-10T04:37:49;13.32;;;6.72;;
33413;SDS011;60055;41.884;12.534;2023-05-10T04:40:14;12.10;;;6.95;;
33413;SDS011;60055;41.884;12.534;2023-05-10T04:42:40;10.13;;;6.88;;
33413;SDS011;60055;41.884;12.534;2023-05-10T04:45:08;15.27;;;7.72;;
33413;SDS011;60055;41.884;12.534;2023-05-10T04:47:34;12.43;;;7.40;;
33413;SDS011;60055;41.884;12.534;2023-05-10T04:50:00;14.90;;;7.65;;
33413;SDS011;60055;41.884;12.534;2023-05-10T04:52:25;14.45;;;8.38;;
33413;SDS011;60055;41.884;12.534;2023-05-10T04:54:51;16.17;;;8.13;;
33413;SDS011;60055;41.884;12.534;2023-05-10T04:57:16;14.45;;;7.47;;
33413;SDS011;60055;41.884;12.534;2023-05-10T04:59:42;14.43;;;8.10;;
33413;SDS011;60055;41.884;12.534;2023-05-10T05:02:07;12.38;;;7.40;;
33413;SDS011;60055;41.884;12.534;2023-05-10T05:04:33;12.50;;;7.70;;
33413;SDS011;60055;41.884;12.534;2023-05-10T05:06:58;12.70;;;8.05;;
33413;SDS011;60055;41.884;12.534;2023-05-10T05:09:24;16.55;;;7.80;;
33413;SDS011;60055;41.884;12.534;2023-05-10T05:11:49;11.80;;;7.38;;
33413;SDS011;60055;41.884;12.534;2023-05-10T05:14:15;13.60;;;7.55;;
33413;SDS011;60055;41.884;12.534;2023-05-10T05:16:40;13.18;;;7.80;;
33413;SDS011;60055;41.884;12.534;2023-05-10T05:19:05;20.90;;;7.97;;
33413;SDS011;60055;41.884;12.534;2023-05-10T05:21:31;15.80;;;8.75;;
33413;SDS011;60055;41.884;12.534;2023-05-10T05:23:57;14.75;;;8.18;;
33413;SDS011;60055;41.884;12.534;2023-05-10T05:26:23;21.38;;;13.30;;
33413;SDS011;60055;41.884;12.534;2023-05-10T05:28:48;16.73;;;11.55;;
33413;SDS011;60055;41.884;12.534;2023-05-10T05:31:16;13.43;;;8.30;;
33413;SDS011;60055;41.884;12.534;2023-05-10T05:33:42;11.45;;;8.05;;
33413;SDS011;60055;41.884;12.534;2023-05-10T05:36:08;11.73;;;7.45;;
33413;SDS011;60055;41.884;12.534;2023-05-10T05:38:33;14.15;;;7.93;;
33413;SDS011;60055;41.884;12.534;2023-05-10T05:40:59;11.40;;;7.60;;
33413;SDS011;60055;41.884;12.534;2023-05-10T05:43:24;11.15;;;7.28;;
33413;SDS011;60055;41.884;12.534;2023-05-10T05:45:51;13.13;;;7.57;;
33413;SDS011;60055;41.884;12.534;2023-05-10T05:48:17;14.43;;;8.30;;
33413;SDS011;60055;41.884;12.534;2023-05-10T05:50:42;17.45;;;8.60;;
33413;SDS011;60055;41.884;12.534;2023-05-10T05:53:08;14.50;;;7.70;;
33413;SDS011;60055;41.884;12.534;2023-05-10T05:55:34;13.02;;;7.38;;
33413;SDS011;60055;41.884;12.534;2023-05-10T05:57:59;14.68;;;7.75;;
33413;SDS011;60055;41.884;12.534;2023-05-10T06:00:24;8.75;;;6.18;;
33413;SDS011;60055;41.884;12.534;2023-05-10T06:02:50;14.02;;;6.22;;
33413;SDS011;60055;41.884;12.534;2023-05-10T06:05:16;11.60;;;5.30;;
33413;SDS011;60055;41.884;12.534;2023-05-10T06:07:42;9.52;;;5.10;;
33413;SDS011;60055;41.884;12.534;2023-05-10T06:10:08;14.20;;;5.93;;
33413;SDS011;60055;41.884;12.534;2023-05-10T06:12:34;9.02;;;5.03;;
33413;SDS011;60055;41.884;12.534;2023-05-10T06:14:59;9.00;;;5.00;;
33413;SDS011;60055;41.884;12.534;2023-05-10T06:17:25;9.60;;;5.03;;
33413;SDS011;60055;41.884;12.534;2023-05-10T06:19:51;9.18;;;4.88;;
33413;SDS011;60055;41.884;12.534;2023-05-10T06:22:16;10.98;;;4.95;;
33413;SDS011;60055;41.884;12.534;2023-05-10T06:24:42;7.30;;;4.40;;
33413;SDS011;60055;41.884;12.534;2023-05-10T06:27:08;8.57;;;4.88;;
33413;SDS011;60055;41.884;12.534;2023-05-10T06:29:34;10.05;;;4.55;;
33413;SDS011;60055;41.884;12.534;2023-05-10T06:31:59;10.23;;;5.72;;
33413;SDS011;60055;41.884;12.534;2023-05-10T06:34:24;7.93;;;3.90;;
33413;SDS011;60055;41.884;12.534;2023-05-10T06:36:50;5.57;;;3.10;;
33413;SDS011;60055;41.884;12.534;2023-05-10T06:39:16;6.85;;;3.03;;
33413;SDS011;60055;41.884;12.534;2023-05-10T06:41:42;5.63;;;2.95;;
33413;SDS011;60055;41.884;12.534;2023-05-10T06:44:07;7.38;;;3.55;;
33413;SDS011;60055;41.884;12.534;2023-05-10T06:46:33;7.40;;;3.72;;
33413;SDS011;60055;41.884;12.534;2023-05-10T06:48:58;8.60;;;4.07;;
33413;SDS011;60055;41.884;12.534;2023-05-10T06:51:24;9.10;;;4.43;;
33413;SDS011;60055;41.884;12.534;2023-05-10T06:53:51;9.43;;;3.90;;
33413;SDS011;60055;41.884;12.534;2023-05-10T06:56:16;9.60;;;4.03;;
33413;SDS011;60055;41.884;12.534;2023-05-10T06:58:41;8.50;;;4.18;;
33413;SDS011;60055;41.884;12.534;2023-05-10T07:01:07;12.68;;;5.00;;
33413;SDS011;60055;41.884;12.534;2023-05-10T07:03:33;7.43;;;3.17;;
33413;SDS011;60055;41.884;12.534;2023-05-10T07:06:01;7.32;;;3.47;;
33413;SDS011;60055;41.884;12.534;2023-05-10T07:08:32;11.65;;;4.10;;
33413;SDS011;60055;41.884;12.534;2023-05-10T07:11:02;7.40;;;3.92;;
33413;SDS011;60055;41.884;12.534;2023-05-10T07:13:29;9.13;;;3.58;;
33413;SDS011;60055;41.884;12.534;2023-05-10T07:15:55;9.13;;;3.38;;
33413;SDS011;60055;41.884;12.534;2023-05-10T07:18:21;7.03;;;2.90;;
33413;SDS011;60055;41.884;12.534;2023-05-10T07:20:46;12.95;;;3.70;;
33413;SDS011;60055;41.884;12.534;2023-05-10T07:23:11;14.02;;;3.83;;
33413;SDS011;60055;41.884;12.534;2023-05-10T07:25:37;12.13;;;4.28;;
33413;SDS011;60055;41.884;12.534;2023-05-10T07:28:02;8.20;;;3.90;;
33413;SDS011;60055;41.884;12.534;2023-05-10T07:30:28;11.57;;;4.18;;
33413;SDS011;60055;41.884;12.534;2023-05-10T07:32:53;14.85;;;9.20;;
33413;SDS011;60055;41.884;12.534;2023-05-10T07:35:19;8.85;;;4.82;;
33413;SDS011;60055;41.884;12.534;2023-05-10T07:37:44;9.07;;;3.60;;
33413;SDS011;60055;41.884;12.534;2023-05-10T07:40:10;8.90;;;3.65;;
33413;SDS011;60055;41.884;12.534;2023-05-10T07:42:35;5.55;;;3.33;;
33413;SDS011;60055;41.884;12.534;2023-05-10T07:45:01;7.70;;;3.83;;
33413;SDS011;60055;41.884;12.534;2023-05-10T07:47:26;7.38;;;3.55;;
33413;SDS011;60055;41.884;12.534;2023-05-10T07:49:52;7.40;;;3.70;;
33413;SDS011;60055;41.884;12.534;2023-05-10T07:52:17;7.05;;;3.15;;
33413;SDS011;60055;41.884;12.534;2023-05-10T07:54:43;7.43;;;3.63;;
33413;SDS011;60055;41.884;12.534;2023-05-10T07:57:09;9.43;;;3.25;;
33413;SDS011;60055;41.884;12.534;2023-05-10T07:59:35;7.45;;;3.72;;
33413;SDS011;60055;41.884;12.534;2023-05-10T08:02:00;8.38;;;3.70;;
33413;SDS011;60055;41.884;12.534;2023-05-10T08:04:25;8.20;;;4.10;;
33413;SDS011;60055;41.884;12.534;2023-05-10T08:06:51;8.05;;;4.63;;
33413;SDS011;60055;41.884;12.534;2023-05-10T08:09:16;7.03;;;3.70;;
33413;SDS011;60055;41.884;12.534;2023-05-10T08:11:42;9.32;;;4.53;;
33413;SDS011;60055;41.884;12.534;2023-05-10T08:14:08;12.45;;;6.10;;
33413;SDS011;60055;41.884;12.534;2023-05-10T08:16:33;11.30;;;6.32;;
33413;SDS011;60055;41.884;12.534;2023-05-10T08:18:59;9.60;;;5.50;;
33413;SDS011;60055;41.884;12.534;2023-05-10T08:21:24;7.95;;;4.30;;
33413;SDS011;60055;41.884;12.534;2023-05-10T08:23:51;9.93;;;4.80;;
33413;SDS011;60055;41.884;12.534;2023-05-10T08:26:16;8.55;;;3.92;;
33413;SDS011;60055;41.884;12.534;2023-05-10T08:28:42;7.38;;;3.72;;
33413;SDS011;60055;41.884;12.534;2023-05-10T08:31:07;6.53;;;3.40;;
33413;SDS011;60055;41.884;12.534;2023-05-10T08:33:33;6.50;;;3.40;;
33413;SDS011;60055;41.884;12.534;2023-05-10T08:35:58;7.30;;;3.30;;
33413;SDS011;60055;41.884;12.534;2023-05-10T08:38:23;7.18;;;3.40;;
33413;SDS011;60055;41.884;12.534;2023-05-10T08:40:50;6.05;;;2.97;;
33413;SDS011;60055;41.884;12.534;2023-05-10T08:43:21;5.55;;;2.85;;
33413;SDS011;60055;41.884;12.534;2023-05-10T08:45:51;5.50;;;2.92;;
33413;SDS011;60055;41.884;12.534;2023-05-10T08:48:19;4.47;;;2.92;;
33413;SDS011;60055;41.884;12.534;2023-05-10T08:50:47;6.32;;;2.90;;
33413;SDS011;60055;41.884;12.534;2023-05-10T08:53:14;5.38;;;3.10;;
33413;SDS011;60055;41.884;12.534;2023-05-10T08:55:41;4.88;;;2.55;;
33413;SDS011;60055;41.884;12.534;2023-05-10T08:58:07;5.63;;;2.65;;
33413;SDS011;60055;41.884;12.534;2023-05-10T09:00:34;7.90;;;2.53;;
33413;SDS011;60055;41.884;12.534;2023-05-10T09:03:01;5.20;;;2.80;;
33413;SDS011;60055;41.884;12.534;2023-05-10T09:05:28;7.13;;;2.80;;
33413;SDS011;60055;41.884;12.534;2023-05-10T09:07:54;4.10;;;2.70;;
33413;SDS011;60055;41.884;12.534;2023-05-10T09:10:19;5.25;;;2.75;;
33413;SDS011;60055;41.884;12.534;2023-05-10T09:12:45;5.57;;;2.58;;
33413;SDS011;60055;41.884;12.534;2023-05-10T09:15:14;5.70;;;2.00;;
33413;SDS011;60055;41.884;12.534;2023-05-10T09:17:40;5.05;;;2.20;;
33413;SDS011;60055;41.884;12.534;2023-05-10T09:20:07;6.13;;;2.53;;
33413;SDS011;60055;41.884;12.534;2023-05-10T09:22:33;7.20;;;2.75;;
33413;SDS011;60055;41.884;12.534;2023-05-10T09:25:03;4.97;;;2.03;;
33413;SDS011;60055;41.884;12.534;2023-05-10T09:27:30;3.33;;;1.98;;
33413;SDS011;60055;41.884;12.534;2023-05-10T09:29:55;5.43;;;2.25;;
33413;SDS011;60055;41.884;12.534;2023-05-10T09:32:20;5.20;;;2.60;;
33413;SDS011;60055;41.884;12.534;2023-05-10T09:34:46;6.47;;;2.80;;
33413;SDS011;60055;41.884;12.534;2023-05-10T09:37:14;5.18;;;2.70;;
33413;SDS011;60055;41.884;12.534;2023-05-10T09:39:40;8.32;;;3.05;;
33413;SDS011;60055;41.884;12.534;2023-05-10T09:42:09;5.13;;;2.72;;
33413;SDS011;60055;41.884;12.534;2023-05-10T09:44:35;5.05;;;2.70;;
33413;SDS011;60055;41.884;12.534;2023-05-10T09:47:01;4.43;;;2.35;;
33413;SDS011;60055;41.884;12.534;2023-05-10T09:49:27;4.25;;;2.40;;
33413;SDS011;60055;41.884;12.534;2023-05-10T09:52:00;6.18;;;3.35;;
33413;SDS011;60055;41.884;12.534;2023-05-10T09:54:27;7.88;;;2.65;;
33413;SDS011;60055;41.884;12.534;2023-05-10T09:56:52;6.70;;;2.85;;
33413;SDS011;60055;41.884;12.534;2023-05-10T09:59:18;6.07;;;2.33;;
33413;SDS011;60055;41.884;12.534;2023-05-10T10:01:49;5.65;;;2.38;;
33413;SDS011;60055;41.884;12.534;2023-05-10T10:04:21;4.20;;;2.20;;
33413;SDS011;60055;41.884;12.534;2023-05-10T10:06:47;5.07;;;2.58;;
33413;SDS011;60055;41.884;12.534;2023-05-10T10:09:24;7.30;;;2.83;;
33413;SDS011;60055;41.884;12.534;2023-05-10T10:11:50;4.68;;;2.30;;
33413;SDS011;60055;41.884;12.534;2023-05-10T10:14:17;3.30;;;2.20;;
33413;SDS011;60055;41.884;12.534;2023-05-10T10:16:43;6.65;;;2.70;;
33413;SDS011;60055;41.884;12.534;2023-05-10T10:19:09;4.03;;;2.40;;
33413;SDS011;60055;41.884;12.534;2023-05-10T10:21:35;4.60;;;2.75;;
33413;SDS011;60055;41.884;12.534;2023-05-10T10:24:00;4.90;;;2.47;;
33413;SDS011;60055;41.884;12.534;2023-05-10T10:26:26;5.25;;;2.65;;
33413;SDS011;60055;41.884;12.534;2023-05-10T10:32:07;9.18;;;3.20;;
33413;SDS011;60055;41.884;12.534;2023-05-10T10:34:44;6.38;;;2.92;;
33413;SDS011;60055;41.884;12.534;2023-05-10T10:37:09;6.57;;;3.28;;
33413;SDS011;60055;41.884;12.534;2023-05-10T10:39:35;5.85;;;3.17;;
33413;SDS011;60055;41.884;12.534;2023-05-10T10:42:01;4.80;;;2.90;;
33413;SDS011;60055;41.884;12.534;2023-05-10T10:49:36;6.90;;;3.45;;
33413;SDS011;60055;41.884;12.534;2023-05-10T10:54:41;8.15;;;3.95;;
33413;SDS011;60055;41.884;12.534;2023-05-10T10:57:13;6.40;;;3.63;;
33413;SDS011;60055;41.884;12.534;2023-05-10T10:59:42;6.63;;;3.35;;
33413;SDS011;60055;41.884;12.534;2023-05-10T11:02:09;3.72;;;2.50;;
33413;SDS011;60055;41.884;12.534;2023-05-10T11:04:52;4.45;;;2.88;;
33413;SDS011;60055;41.884;12.534;2023-05-10T11:07:18;6.43;;;2.45;;
33413;SDS011;60055;41.884;12.534;2023-05-10T11:09:47;6.38;;;3.00;;
33413;SDS011;60055;41.884;12.534;2023-05-10T11:12:13;5.78;;;2.72;;
33413;SDS011;60055;41.884;12.534;2023-05-10T11:14:39;7.00;;;3.20;;
33413;SDS011;60055;41.884;12.534;2023-05-10T11:20:06;4.82;;;2.53;;
33413;SDS011;60055;41.884;12.534;2023-05-10T11:22:48;4.40;;;2.10;;
33413;SDS011;60055;41.884;12.534;2023-05-10T11:25:16;3.33;;;1.55;;
33413;SDS011;60055;41.884;12.534;2023-05-10T11:27:41;1.95;;;1.25;;
33413;SDS011;60055;41.884;12.534;2023-05-10T11:30:07;3.78;;;1.20;;
33413;SDS011;60055;41.884;12.534;2023-05-10T11:32:37;3.15;;;1.40;;
33413;SDS011;60055;41.884;12.534;2023-05-10T11:35:07;3.50;;;1.30;;
33413;SDS011;60055;41.884;12.534;2023-05-10T11:37:33;5.25;;;1.35;;
33413;SDS011;60055;41.884;12.534;2023-05-10T11:39:59;3.97;;;1.17;;
33413;SDS011;60055;41.884;12.534;2023-05-10T11:42:25;3.15;;;1.27;;
33413;SDS011;60055;41.884;12.534;2023-05-10T11:44:52;3.40;;;1.35;;
33413;SDS011;60055;41.884;12.534;2023-05-10T11:47:17;3.42;;;1.30;;
33413;SDS011;60055;41.884;12.534;2023-05-10T11:49:43;3.58;;;1.55;;
33413;SDS011;60055;41.884;12.534;2023-05-10T11:52:09;4.50;;;1.45;;
33413;SDS011;60055;41.884;12.534;2023-05-10T11:54:36;4.32;;;1.10;;
33413;SDS011;60055;41.884;12.534;2023-05-10T11:57:02;3.47;;;1.27;;
33413;SDS011;60055;41.884;12.534;2023-05-10T11:59:28;4.22;;;1.20;;
33413;SDS011;60055;41.884;12.534;2023-05-10T12:01:53;6.32;;;1.30;;
33413;SDS011;60055;41.884;12.534;2023-05-10T12:04:19;3.75;;;1.30;;
33413;SDS011;60055;41.884;12.534;2023-05-10T12:06:44;3.78;;;1.30;;
33413;SDS011;60055;41.884;12.534;2023-05-10T12:09:11;3.55;;;1.20;;
33413;SDS011;60055;41.884;12.534;2023-05-10T12:11:37;3.55;;;1.35;;
33413;SDS011;60055;41.884;12.534;2023-05-10T12:14:05;4.93;;;1.33;;
33413;SDS011;60055;41.884;12.534;2023-05-10T12:16:31;6.07;;;1.63;;
33413;SDS011;60055;41.884;12.534;2023-05-10T12:18:57;4.78;;;1.63;;
33413;SDS011;60055;41.884;12.534;2023-05-10T12:21:25;6.55;;;1.50;;
33413;SDS011;60055;41.884;12.534;2023-05-10T12:23:51;5.25;;;1.55;;
33413;SDS011;60055;41.884;12.534;2023-05-10T12:26:18;4.00;;;1.52;;
33413;SDS011;60055;41.884;12.534;2023-05-10T12:28:47;5.53;;;1.50;;
33413;SDS011;60055;41.884;12.534;2023-05-10T12:31:12;8.48;;;1.80;;
33413;SDS011;60055;41.884;12.534;2023-05-10T12:33:41;4.13;;;1.20;;
33413;SDS011;60055;41.884;12.534;2023-05-10T12:36:08;3.70;;;1.30;;
33413;SDS011;60055;41.884;12.534;2023-05-10T12:38:36;7.85;;;1.45;;
33413;SDS011;60055;41.884;12.534;2023-05-10T12:41:06;4.22;;;1.50;;
33413;SDS011;60055;41.884;12.534;2023-05-10T12:43:33;4.13;;;1.35;;
33413;SDS011;60055;41.884;12.534;2023-05-10T12:48:31;6.65;;;1.73;;
33413;SDS011;60055;41.884;12.534;2023-05-10T12:50:58;7.22;;;1.50;;
33413;SDS011;60055;41.884;12.534;2023-05-10T12:53:24;4.55;;;1.75;;
33413;SDS011;60055;41.884;12.534;2023-05-10T12:55:49;4.40;;;1.40;;
33413;SDS011;60055;41.884;12.534;2023-05-10T12:58:15;5.40;;;1.30;;
33413;SDS011;60055;41.884;12.534;2023-05-10T13:00:40;9.90;;;1.88;;
33413;SDS011;60055;41.884;12.534;2023-05-10T13:03:06;5.10;;;1.50;;
33413;SDS011;60055;41.884;12.534;2023-05-10T13:05:34;6.70;;;1.60;;
33413;SDS011;60055;41.884;12.534;2023-05-10T13:07:59;4.00;;;1.55;;
33413;SDS011;60055;41.884;12.534;2023-05-10T13:10:25;7.40;;;1.75;;
33413;SDS011;60055;41.884;12.534;2023-05-10T13:12:50;5.90;;;1.55;;
33413;SDS011;60055;41.884;12.534;2023-05-10T13:15:16;6.35;;;1.70;;
33413;SDS011;60055;41.884;12.534;2023-05-10T13:17:41;6.75;;;1.80;;
33413;SDS011;60055;41.884;12.534;2023-05-10T13:20:07;6.13;;;1.52;;
33413;SDS011;60055;41.884;12.534;2023-05-10T13:22:34;3.55;;;1.70;;
33413;SDS011;60055;41.884;12.534;2023-05-10T13:25:00;6.57;;;1.60;;
33413;SDS011;60055;41.884;12.534;2023-05-10T13:27:26;5.03;;;1.60;;
33413;SDS011;60055;41.884;12.534;2023-05-10T13:29:51;6.28;;;1.73;;
33413;SDS011;60055;41.884;12.534;2023-05-10T13:32:16;6.28;;;1.70;;
33413;SDS011;60055;41.884;12.534;2023-05-10T13:34:42;7.60;;;1.67;;
33413;SDS011;60055;41.884;12.534;2023-05-10T13:37:07;5.75;;;1.88;;
33413;SDS011;60055;41.884;12.534;2023-05-10T13:39:33;6.75;;;1.88;;
33413;SDS011;60055;41.884;12.534;2023-05-10T13:41:59;16.02;;;4.10;;
33413;SDS011;60055;41.884;12.534;2023-05-10T13:44:25;8.93;;;1.92;;
33413;SDS011;60055;41.884;12.534;2023-05-10T13:46:51;9.88;;;1.92;;
33413;SDS011;60055;41.884;12.534;2023-05-10T13:49:16;6.95;;;1.67;;
33413;SDS011;60055;41.884;12.534;2023-05-10T13:51:42;9.85;;;4.50;;
33413;SDS011;60055;41.884;12.534;2023-05-10T13:54:08;6.57;;;2.20;;
33413;SDS011;60055;41.884;12.534;2023-05-10T13:56:34;10.05;;;1.80;;
33413;SDS011;60055;41.884;12.534;2023-05-10T13:58:59;7.03;;;2.17;;
33413;SDS011;60055;41.884;12.534;2023-05-10T14:01:25;8.02;;;1.90;;
33413;SDS011;60055;41.884;12.534;2023-05-10T14:03:50;5.25;;;1.77;;
33413;SDS011;60055;41.884;12.534;2023-05-10T14:06:16;8.05;;;2.20;;
33413;SDS011;60055;41.884;12.534;2023-05-10T14:08:42;8.48;;;2.25;;
33413;SDS011;60055;41.884;12.534;2023-05-10T14:11:07;5.65;;;2.28;;
33413;SDS011;60055;41.884;12.534;2023-05-10T14:13:33;8.38;;;1.85;;
33413;SDS011;60055;41.884;12.534;2023-05-10T14:15:58;6.47;;;1.73;;
33413;SDS011;60055;41.884;12.534;2023-05-10T14:18:26;5.65;;;1.60;;
33413;SDS011;60055;41.884;12.534;2023-05-10T14:20:51;8.93;;;1.90;;
33413;SDS011;60055;41.884;12.534;2023-05-10T14:23:17;10.23;;;1.75;;
33413;SDS011;60055;41.884;12.534;2023-05-10T14:25:44;7.13;;;1.75;;
33413;SDS011;60055;41.884;12.534;2023-05-10T14:28:10;4.72;;;1.55;;
33413;SDS011;60055;41.884;12.534;2023-05-10T14:30:37;7.28;;;1.80;;
33413;SDS011;60055;41.884;12.534;2023-05-10T14:33:02;13.85;;;2.13;;
33413;SDS011;60055;41.884;12.534;2023-05-10T14:35:28;8.75;;;1.80;;
33413;SDS011;60055;41.884;12.534;2023-05-10T14:37:56;9.15;;;1.83;;
33413;SDS011;60055;41.884;12.534;2023-05-10T14:40:21;8.57;;;2.03;;
33413;SDS011;60055;41.884;12.534;2023-05-10T14:42:47;10.02;;;1.85;;
33413;SDS011;60055;41.884;12.534;2023-05-10T14:45:13;6.90;;;1.90;;
33413;SDS011;60055;41.884;12.534;2023-05-10T14:47:38;7.93;;;2.30;;
33413;SDS011;60055;41.884;12.534;2023-05-10T14:50:04;6.82;;;1.67;;
33413;SDS011;60055;41.884;12.534;2023-05-10T14:52:30;9.00;;;2.00;;
33413;SDS011;60055;41.884;12.534;2023-05-10T14:54:56;10.05;;;2.10;;
33413;SDS011;60055;41.884;12.534;2023-05-10T14:57:22;8.50;;;1.83;;
33413;SDS011;60055;41.884;12.534;2023-05-10T14:59:47;8.68;;;2.10;;
33413;SDS011;60055;41.884;12.534;2023-05-10T15:02:13;7.10;;;1.85;;
33413;SDS011;60055;41.884;12.534;2023-05-10T15:04:38;8.43;;;1.80;;